sensor_id;sensor_type;location;lat;lon;timestamp;P1;durP1;ratioP1;P2;durP2;ratioP2
52848;SDS011;38714;53.180;5.812;2022-07-29T00:00:52;0.35;;;0.35;;
52848;SDS011;38714;53.180;5.812;2022-07-29T00:03:17;1.05;;;0.40;;
52848;SDS011;38714;53.180;5.812;2022-07-29T00:05:43;0.40;;;0.40;;
52848;SDS011;38714;53.180;5.812;2022-07-29T00:08:08;0.73;;;0.50;;
52848;SDS011;38714;53.180;5.812;2022-07-29T00:10:34;2.30;;;0.82;;
52848;SDS011;38714;53.180;5.812;2022-07-29T00:13:00;1.58;;;0.55;;
52848;SDS011;38714;53.180;5.812;2022-07-29T00:15:26;0.28;;;0.28;;
52848;SDS011;38714;53.180;5.812;2022-07-29T00:17:52;2.47;;;0.40;;
52848;SDS011;38714;53.180;5.812;2022-07-29T00:20:18;2.15;;;0.65;;
52848;SDS011;38714;53.180;5.812;2022-07-29T00:22:43;0.55;;;0.55;;
52848;SDS011;38714;53.180;5.812;2022-07-29T00:25:09;0.40;;;0.40;;
52848;SDS011;38714;53.180;5.812;2022-07-29T00:27:36;1.23;;;0.25;;
52848;SDS011;38714;53.180;5.812;2022-07-29T00:30:02;0.20;;;0.20;;
52848;SDS011;38714;53.180;5.812;2022-07-29T00:32:29;0.30;;;0.30;;
52848;SDS011;38714;53.180;5.812;2022-07-29T00:34:54;0.68;;;0.60;;
52848;SDS011;38714;53.180;5.812;2022-07-29T00:37:38;0.47;;;0.40;;
52848;SDS011;38714;53.180;5.812;2022-07-29T00:40:04;0.30;;;0.30;;
52848;SDS011;38714;53.180;5.812;2022-07-29T00:42:40;1.23;;;0.25;;
52848;SDS011;38714;53.180;5.812;2022-07-29T00:45:07;0.95;;;0.93;;
52848;SDS011;38714;53.180;5.812;2022-07-29T00:47:33;1.05;;;0.55;;
52848;SDS011;38714;53.180;5.812;2022-07-29T00:49:58;0.20;;;0.20;;
52848;SDS011;38714;53.180;5.812;2022-07-29T00:52:24;0.30;;;0.30;;
52848;SDS011;38714;53.180;5.812;2022-07-29T00:54:50;0.68;;;0.68;;
52848;SDS011;38714;53.180;5.812;2022-07-29T00:57:15;1.88;;;0.68;;
52848;SDS011;38714;53.180;5.812;2022-07-29T00:59:41;0.73;;;0.70;;
52848;SDS011;38714;53.180;5.812;2022-07-29T01:02:06;2.13;;;0.47;;
52848;SDS011;38714;53.180;5.812;2022-07-29T01:04:32;0.63;;;0.50;;
52848;SDS011;38714;53.180;5.812;2022-07-29T01:06:58;0.28;;;0.28;;
52848;SDS011;38714;53.180;5.812;2022-07-29T01:09:26;0.40;;;0.40;;
52848;SDS011;38714;53.180;5.812;2022-07-29T01:11:52;1.20;;;0.30;;
52848;SDS011;38714;53.180;5.812;2022-07-29T01:14:19;0.30;;;0.30;;
52848;SDS011;38714;53.180;5.812;2022-07-29T01:16:58;1.42;;;0.57;;
52848;SDS011;38714;53.180;5.812;2022-07-29T01:22:25;0.50;;;0.50;;
52848;SDS011;38714;53.180;5.812;2022-07-29T01:30:25;1.10;;;0.45;;
52848;SDS011;38714;53.180;5.812;2022-07-29T01:32:56;0.47;;;0.43;;
52848;SDS011;38714;53.180;5.812;2022-07-29T01:35:28;0.43;;;0.43;;
52848;SDS011;38714;53.180;5.812;2022-07-29T01:38:05;0.45;;;0.45;;
52848;SDS011;38714;53.180;5.812;2022-07-29T01:40:35;0.38;;;0.38;;
52848;SDS011;38714;53.180;5.812;2022-07-29T01:43:16;1.65;;;0.50;;
52848;SDS011;38714;53.180;5.812;2022-07-29T01:46:00;1.63;;;0.50;;
52848;SDS011;38714;53.180;5.812;2022-07-29T01:51:30;0.65;;;0.65;;
52848;SDS011;38714;53.180;5.812;2022-07-29T01:54:08;0.40;;;0.40;;
52848;SDS011;38714;53.180;5.812;2022-07-29T01:56:36;1.33;;;0.60;;
52848;SDS011;38714;53.180;5.812;2022-07-29T01:59:05;0.70;;;0.55;;
52848;SDS011;38714;53.180;5.812;2022-07-29T02:01:32;0.30;;;0.30;;
52848;SDS011;38714;53.180;5.812;2022-07-29T02:04:01;0.40;;;0.38;;
52848;SDS011;38714;53.180;5.812;2022-07-29T02:06:29;0.65;;;0.65;;
52848;SDS011;38714;53.180;5.812;2022-07-29T02:08:58;0.95;;;0.70;;
52848;SDS011;38714;53.180;5.812;2022-07-29T02:11:26;0.85;;;0.65;;
52848;SDS011;38714;53.180;5.812;2022-07-29T02:13:52;1.42;;;0.60;;
52848;SDS011;38714;53.180;5.812;2022-07-29T02:16:21;0.55;;;0.55;;
52848;SDS011;38714;53.180;5.812;2022-07-29T02:18:51;0.60;;;0.60;;
52848;SDS011;38714;53.180;5.812;2022-07-29T02:21:19;1.50;;;0.60;;
52848;SDS011;38714;53.180;5.812;2022-07-29T02:23:49;0.50;;;0.50;;
52848;SDS011;38714;53.180;5.812;2022-07-29T02:26:18;2.13;;;0.70;;
52848;SDS011;38714;53.180;5.812;2022-07-29T02:28:45;1.05;;;0.70;;
52848;SDS011;38714;53.180;5.812;2022-07-29T02:31:12;0.57;;;0.55;;
52848;SDS011;38714;53.180;5.812;2022-07-29T02:33:38;0.85;;;0.50;;
52848;SDS011;38714;53.180;5.812;2022-07-29T02:36:06;0.75;;;0.70;;
52848;SDS011;38714;53.180;5.812;2022-07-29T02:38:32;0.60;;;0.60;;
52848;SDS011;38714;53.180;5.812;2022-07-29T02:41:16;0.47;;;0.40;;
52848;SDS011;38714;53.180;5.812;2022-07-29T02:43:50;2.35;;;0.75;;
52848;SDS011;38714;53.180;5.812;2022-07-29T02:46:31;0.70;;;0.43;;
52848;SDS011;38714;53.180;5.812;2022-07-29T02:51:58;0.80;;;0.57;;
52848;SDS011;38714;53.180;5.812;2022-07-29T02:54:44;0.85;;;0.63;;
52848;SDS011;38714;53.180;5.812;2022-07-29T02:57:28;0.60;;;0.60;;
52848;SDS011;38714;53.180;5.812;2022-07-29T03:00:01;0.70;;;0.50;;
52848;SDS011;38714;53.180;5.812;2022-07-29T03:02:31;1.80;;;0.68;;
52848;SDS011;38714;53.180;5.812;2022-07-29T03:05:00;0.90;;;0.90;;
52848;SDS011;38714;53.180;5.812;2022-07-29T03:07:27;0.65;;;0.65;;
52848;SDS011;38714;53.180;5.812;2022-07-29T03:09:54;18.77;;;1.20;;
52848;SDS011;38714;53.180;5.812;2022-07-29T03:12:21;1.00;;;0.55;;
52848;SDS011;38714;53.180;5.812;2022-07-29T03:14:48;0.60;;;0.60;;
52848;SDS011;38714;53.180;5.812;2022-07-29T03:17:14;0.73;;;0.52;;
52848;SDS011;38714;53.180;5.812;2022-07-29T03:19:41;0.50;;;0.50;;
52848;SDS011;38714;53.180;5.812;2022-07-29T03:22:07;0.50;;;0.50;;
52848;SDS011;38714;53.180;5.812;2022-07-29T03:24:34;0.30;;;0.30;;
52848;SDS011;38714;53.180;5.812;2022-07-29T03:27:02;1.15;;;0.70;;
52848;SDS011;38714;53.180;5.812;2022-07-29T03:29:29;0.77;;;0.75;;
52848;SDS011;38714;53.180;5.812;2022-07-29T03:31:54;1.00;;;0.70;;
52848;SDS011;38714;53.180;5.812;2022-07-29T03:34:20;1.08;;;0.50;;
52848;SDS011;38714;53.180;5.812;2022-07-29T03:36:46;1.55;;;1.35;;
52848;SDS011;38714;53.180;5.812;2022-07-29T03:39:13;0.52;;;0.43;;
52848;SDS011;38714;53.180;5.812;2022-07-29T03:41:42;1.13;;;0.47;;
52848;SDS011;38714;53.180;5.812;2022-07-29T03:44:10;1.45;;;0.40;;
52848;SDS011;38714;53.180;5.812;2022-07-29T03:46:38;0.68;;;0.52;;
52848;SDS011;38714;53.180;5.812;2022-07-29T03:49:06;1.00;;;0.57;;
52848;SDS011;38714;53.180;5.812;2022-07-29T03:51:33;1.20;;;1.00;;
52848;SDS011;38714;53.180;5.812;2022-07-29T03:54:02;1.13;;;0.68;;
52848;SDS011;38714;53.180;5.812;2022-07-29T03:56:29;1.15;;;0.50;;
52848;SDS011;38714;53.180;5.812;2022-07-29T03:58:57;2.10;;;0.73;;
52848;SDS011;38714;53.180;5.812;2022-07-29T04:01:23;0.47;;;0.40;;
52848;SDS011;38714;53.180;5.812;2022-07-29T04:03:50;0.40;;;0.40;;
52848;SDS011;38714;53.180;5.812;2022-07-29T04:06:16;0.95;;;0.52;;
52848;SDS011;38714;53.180;5.812;2022-07-29T04:08:41;1.38;;;0.65;;
52848;SDS011;38714;53.180;5.812;2022-07-29T04:11:07;0.52;;;0.52;;
52848;SDS011;38714;53.180;5.812;2022-07-29T04:13:33;0.47;;;0.30;;
52848;SDS011;38714;53.180;5.812;2022-07-29T04:15:59;0.73;;;0.40;;
52848;SDS011;38714;53.180;5.812;2022-07-29T04:18:24;0.47;;;0.47;;
52848;SDS011;38714;53.180;5.812;2022-07-29T04:20:50;0.80;;;0.80;;
52848;SDS011;38714;53.180;5.812;2022-07-29T04:23:16;1.40;;;0.70;;
52848;SDS011;38714;53.180;5.812;2022-07-29T04:25:42;1.02;;;0.75;;
52848;SDS011;38714;53.180;5.812;2022-07-29T04:28:07;0.73;;;0.50;;
52848;SDS011;38714;53.180;5.812;2022-07-29T04:30:34;1.50;;;0.50;;
52848;SDS011;38714;53.180;5.812;2022-07-29T04:33:01;0.65;;;0.50;;
52848;SDS011;38714;53.180;5.812;2022-07-29T04:35:28;0.73;;;0.63;;
52848;SDS011;38714;53.180;5.812;2022-07-29T04:37:55;4.07;;;0.60;;
52848;SDS011;38714;53.180;5.812;2022-07-29T04:40:20;1.27;;;0.93;;
52848;SDS011;38714;53.180;5.812;2022-07-29T04:42:46;2.13;;;1.48;;
52848;SDS011;38714;53.180;5.812;2022-07-29T04:45:12;0.90;;;0.43;;
52848;SDS011;38714;53.180;5.812;2022-07-29T04:47:37;0.55;;;0.55;;
52848;SDS011;38714;53.180;5.812;2022-07-29T04:50:03;1.38;;;1.27;;
52848;SDS011;38714;53.180;5.812;2022-07-29T04:52:30;1.00;;;0.40;;
52848;SDS011;38714;53.180;5.812;2022-07-29T04:54:56;1.23;;;0.60;;
52848;SDS011;38714;53.180;5.812;2022-07-29T04:57:22;0.60;;;0.60;;
52848;SDS011;38714;53.180;5.812;2022-07-29T04:59:47;1.08;;;1.00;;
52848;SDS011;38714;53.180;5.812;2022-07-29T05:02:13;0.55;;;0.55;;
52848;SDS011;38714;53.180;5.812;2022-07-29T05:04:39;3.50;;;1.30;;
52848;SDS011;38714;53.180;5.812;2022-07-29T05:07:04;0.98;;;0.60;;
52848;SDS011;38714;53.180;5.812;2022-07-29T05:09:30;0.88;;;0.80;;
52848;SDS011;38714;53.180;5.812;2022-07-29T05:11:57;7.53;;;0.60;;
52848;SDS011;38714;53.180;5.812;2022-07-29T05:14:22;1.35;;;1.00;;
52848;SDS011;38714;53.180;5.812;2022-07-29T05:16:48;0.70;;;0.52;;
52848;SDS011;38714;53.180;5.812;2022-07-29T05:19:16;3.30;;;0.68;;
52848;SDS011;38714;53.180;5.812;2022-07-29T05:21:41;0.45;;;0.45;;
52848;SDS011;38714;53.180;5.812;2022-07-29T05:24:07;2.15;;;0.30;;
52848;SDS011;38714;53.180;5.812;2022-07-29T05:26:33;1.95;;;0.60;;
52848;SDS011;38714;53.180;5.812;2022-07-29T05:28:58;0.82;;;0.75;;
52848;SDS011;38714;53.180;5.812;2022-07-29T05:31:24;0.50;;;0.50;;
52848;SDS011;38714;53.180;5.812;2022-07-29T05:33:50;0.65;;;0.65;;
52848;SDS011;38714;53.180;5.812;2022-07-29T05:36:15;1.83;;;0.80;;
52848;SDS011;38714;53.180;5.812;2022-07-29T05:38:41;0.98;;;0.50;;
52848;SDS011;38714;53.180;5.812;2022-07-29T05:41:06;0.40;;;0.25;;
52848;SDS011;38714;53.180;5.812;2022-07-29T05:43:32;0.73;;;0.70;;
52848;SDS011;38714;53.180;5.812;2022-07-29T05:45:58;1.70;;;0.57;;
52848;SDS011;38714;53.180;5.812;2022-07-29T05:48:23;0.82;;;0.73;;
52848;SDS011;38714;53.180;5.812;2022-07-29T05:50:49;1.35;;;0.80;;
52848;SDS011;38714;53.180;5.812;2022-07-29T05:53:15;0.65;;;0.60;;
52848;SDS011;38714;53.180;5.812;2022-07-29T05:55:41;0.90;;;0.55;;
52848;SDS011;38714;53.180;5.812;2022-07-29T05:58:06;2.08;;;0.82;;
52848;SDS011;38714;53.180;5.812;2022-07-29T06:00:32;2.00;;;1.00;;
52848;SDS011;38714;53.180;5.812;2022-07-29T06:02:57;0.65;;;0.55;;
52848;SDS011;38714;53.180;5.812;2022-07-29T06:05:23;1.75;;;1.25;;
52848;SDS011;38714;53.180;5.812;2022-07-29T06:07:49;0.90;;;0.65;;
52848;SDS011;38714;53.180;5.812;2022-07-29T06:10:14;0.40;;;0.40;;
52848;SDS011;38714;53.180;5.812;2022-07-29T06:12:40;1.00;;;0.50;;
52848;SDS011;38714;53.180;5.812;2022-07-29T06:15:05;0.63;;;0.63;;
52848;SDS011;38714;53.180;5.812;2022-07-29T06:17:31;0.93;;;0.52;;
52848;SDS011;38714;53.180;5.812;2022-07-29T06:19:57;1.80;;;1.20;;
52848;SDS011;38714;53.180;5.812;2022-07-29T06:22:23;1.75;;;1.05;;
52848;SDS011;38714;53.180;5.812;2022-07-29T06:24:48;0.73;;;0.32;;
52848;SDS011;38714;53.180;5.812;2022-07-29T06:27:14;2.00;;;0.75;;
52848;SDS011;38714;53.180;5.812;2022-07-29T06:29:41;0.90;;;0.55;;
52848;SDS011;38714;53.180;5.812;2022-07-29T06:32:06;3.17;;;0.80;;
52848;SDS011;38714;53.180;5.812;2022-07-29T06:34:34;1.67;;;1.00;;
52848;SDS011;38714;53.180;5.812;2022-07-29T06:37:00;0.60;;;0.60;;
52848;SDS011;38714;53.180;5.812;2022-07-29T06:39:30;1.02;;;0.50;;
52848;SDS011;38714;53.180;5.812;2022-07-29T06:41:55;4.47;;;0.90;;
52848;SDS011;38714;53.180;5.812;2022-07-29T06:44:21;3.13;;;0.95;;
52848;SDS011;38714;53.180;5.812;2022-07-29T06:46:46;2.08;;;1.05;;
52848;SDS011;38714;53.180;5.812;2022-07-29T06:49:15;1.75;;;1.08;;
52848;SDS011;38714;53.180;5.812;2022-07-29T06:51:40;1.92;;;1.42;;
52848;SDS011;38714;53.180;5.812;2022-07-29T06:54:06;1.50;;;0.73;;
52848;SDS011;38714;53.180;5.812;2022-07-29T06:56:33;1.75;;;0.70;;
52848;SDS011;38714;53.180;5.812;2022-07-29T06:59:02;0.30;;;0.30;;
52848;SDS011;38714;53.180;5.812;2022-07-29T07:01:27;1.17;;;0.80;;
52848;SDS011;38714;53.180;5.812;2022-07-29T07:03:53;1.00;;;0.65;;
52848;SDS011;38714;53.180;5.812;2022-07-29T07:06:19;0.80;;;0.60;;
52848;SDS011;38714;53.180;5.812;2022-07-29T07:08:44;0.93;;;0.70;;
52848;SDS011;38714;53.180;5.812;2022-07-29T07:11:10;1.27;;;0.82;;
52848;SDS011;38714;53.180;5.812;2022-07-29T07:13:36;0.95;;;0.60;;
52848;SDS011;38714;53.180;5.812;2022-07-29T07:16:02;1.13;;;1.05;;
52848;SDS011;38714;53.180;5.812;2022-07-29T07:18:28;10.60;;;2.05;;
52848;SDS011;38714;53.180;5.812;2022-07-29T07:20:54;1.30;;;0.80;;
52848;SDS011;38714;53.180;5.812;2022-07-29T07:23:21;0.60;;;0.60;;
52848;SDS011;38714;53.180;5.812;2022-07-29T07:25:46;1.90;;;0.93;;
52848;SDS011;38714;53.180;5.812;2022-07-29T07:28:12;1.13;;;0.80;;
52848;SDS011;38714;53.180;5.812;2022-07-29T07:30:37;1.35;;;0.90;;
52848;SDS011;38714;53.180;5.812;2022-07-29T07:33:04;1.17;;;0.77;;
52848;SDS011;38714;53.180;5.812;2022-07-29T07:35:29;1.10;;;0.70;;
52848;SDS011;38714;53.180;5.812;2022-07-29T07:37:55;0.63;;;0.63;;
52848;SDS011;38714;53.180;5.812;2022-07-29T07:40:22;2.58;;;0.82;;
52848;SDS011;38714;53.180;5.812;2022-07-29T07:42:47;2.58;;;0.85;;
52848;SDS011;38714;53.180;5.812;2022-07-29T07:45:13;2.35;;;0.98;;
52848;SDS011;38714;53.180;5.812;2022-07-29T07:47:39;0.75;;;0.75;;
52848;SDS011;38714;53.180;5.812;2022-07-29T07:50:05;1.33;;;0.82;;
52848;SDS011;38714;53.180;5.812;2022-07-29T07:52:33;2.40;;;0.93;;
52848;SDS011;38714;53.180;5.812;2022-07-29T07:54:59;1.95;;;0.88;;
52848;SDS011;38714;53.180;5.812;2022-07-29T07:57:25;1.75;;;1.20;;
52848;SDS011;38714;53.180;5.812;2022-07-29T07:59:51;1.75;;;0.80;;
52848;SDS011;38714;53.180;5.812;2022-07-29T08:02:17;0.70;;;0.70;;
52848;SDS011;38714;53.180;5.812;2022-07-29T08:04:42;0.75;;;0.65;;
52848;SDS011;38714;53.180;5.812;2022-07-29T08:07:08;1.08;;;0.70;;
52848;SDS011;38714;53.180;5.812;2022-07-29T08:09:34;1.25;;;0.82;;
52848;SDS011;38714;53.180;5.812;2022-07-29T08:12:00;0.95;;;0.60;;
52848;SDS011;38714;53.180;5.812;2022-07-29T08:14:30;1.48;;;0.85;;
52848;SDS011;38714;53.180;5.812;2022-07-29T08:16:56;1.75;;;0.85;;
52848;SDS011;38714;53.180;5.812;2022-07-29T08:19:22;1.27;;;0.77;;
52848;SDS011;38714;53.180;5.812;2022-07-29T08:21:48;0.85;;;0.70;;
52848;SDS011;38714;53.180;5.812;2022-07-29T08:24:13;2.17;;;1.20;;
52848;SDS011;38714;53.180;5.812;2022-07-29T08:26:57;2.40;;;0.90;;
52848;SDS011;38714;53.180;5.812;2022-07-29T08:29:23;2.35;;;0.73;;
52848;SDS011;38714;53.180;5.812;2022-07-29T08:31:48;1.45;;;0.70;;
52848;SDS011;38714;53.180;5.812;2022-07-29T08:34:14;1.45;;;1.35;;
52848;SDS011;38714;53.180;5.812;2022-07-29T08:36:40;2.15;;;0.82;;
52848;SDS011;38714;53.180;5.812;2022-07-29T08:39:05;2.17;;;0.73;;
52848;SDS011;38714;53.180;5.812;2022-07-29T08:41:31;0.57;;;0.45;;
52848;SDS011;38714;53.180;5.812;2022-07-29T08:43:57;1.08;;;0.88;;
52848;SDS011;38714;53.180;5.812;2022-07-29T08:46:22;5.38;;;1.30;;
52848;SDS011;38714;53.180;5.812;2022-07-29T08:48:48;1.33;;;0.77;;
52848;SDS011;38714;53.180;5.812;2022-07-29T08:51:15;0.77;;;0.40;;
52848;SDS011;38714;53.180;5.812;2022-07-29T08:53:43;0.57;;;0.57;;
52848;SDS011;38714;53.180;5.812;2022-07-29T08:56:20;1.20;;;0.60;;
52848;SDS011;38714;53.180;5.812;2022-07-29T08:58:46;1.35;;;0.90;;
52848;SDS011;38714;53.180;5.812;2022-07-29T09:01:17;0.70;;;0.70;;
52848;SDS011;38714;53.180;5.812;2022-07-29T09:03:46;2.35;;;0.85;;
52848;SDS011;38714;53.180;5.812;2022-07-29T09:06:17;0.90;;;0.88;;
52848;SDS011;38714;53.180;5.812;2022-07-29T09:08:43;1.52;;;0.60;;
52848;SDS011;38714;53.180;5.812;2022-07-29T09:11:10;1.25;;;1.15;;
52848;SDS011;38714;53.180;5.812;2022-07-29T09:13:36;1.08;;;0.80;;
52848;SDS011;38714;53.180;5.812;2022-07-29T09:16:02;0.57;;;0.45;;
52848;SDS011;38714;53.180;5.812;2022-07-29T09:18:33;2.17;;;1.20;;
52848;SDS011;38714;53.180;5.812;2022-07-29T09:21:04;1.83;;;1.00;;
52848;SDS011;38714;53.180;5.812;2022-07-29T09:26:47;1.67;;;0.70;;
52848;SDS011;38714;53.180;5.812;2022-07-29T09:29:17;0.68;;;0.65;;
52848;SDS011;38714;53.180;5.812;2022-07-29T09:31:45;2.08;;;0.93;;
52848;SDS011;38714;53.180;5.812;2022-07-29T09:34:13;1.10;;;0.70;;
52848;SDS011;38714;53.180;5.812;2022-07-29T09:36:47;1.95;;;0.95;;
52848;SDS011;38714;53.180;5.812;2022-07-29T09:39:14;1.55;;;0.98;;
52848;SDS011;38714;53.180;5.812;2022-07-29T09:41:51;2.13;;;0.80;;
52848;SDS011;38714;53.180;5.812;2022-07-29T09:44:19;1.10;;;0.73;;
52848;SDS011;38714;53.180;5.812;2022-07-29T09:46:55;1.40;;;0.85;;
52848;SDS011;38714;53.180;5.812;2022-07-29T09:49:31;1.17;;;1.02;;
52848;SDS011;38714;53.180;5.812;2022-07-29T09:52:04;1.30;;;1.17;;
52848;SDS011;38714;53.180;5.812;2022-07-29T09:54:33;1.00;;;0.90;;
52848;SDS011;38714;53.180;5.812;2022-07-29T09:57:02;1.52;;;0.70;;
52848;SDS011;38714;53.180;5.812;2022-07-29T09:59:29;1.55;;;1.25;;
52848;SDS011;38714;53.180;5.812;2022-07-29T10:01:55;3.88;;;1.35;;
52848;SDS011;38714;53.180;5.812;2022-07-29T10:04:21;0.82;;;0.82;;
52848;SDS011;38714;53.180;5.812;2022-07-29T10:06:57;2.75;;;1.08;;
52848;SDS011;38714;53.180;5.812;2022-07-29T10:09:23;1.90;;;1.25;;
52848;SDS011;38714;53.180;5.812;2022-07-29T10:12:06;5.13;;;0.95;;
52848;SDS011;38714;53.180;5.812;2022-07-29T10:14:38;1.85;;;0.85;;
52848;SDS011;38714;53.180;5.812;2022-07-29T10:17:05;1.55;;;1.45;;
52848;SDS011;38714;53.180;5.812;2022-07-29T10:19:32;1.20;;;0.90;;
52848;SDS011;38714;53.180;5.812;2022-07-29T10:21:58;1.20;;;0.73;;
52848;SDS011;38714;53.180;5.812;2022-07-29T10:24:27;1.60;;;0.88;;
52848;SDS011;38714;53.180;5.812;2022-07-29T10:26:55;1.85;;;0.98;;
52848;SDS011;38714;53.180;5.812;2022-07-29T10:29:22;1.85;;;0.80;;
52848;SDS011;38714;53.180;5.812;2022-07-29T10:32:02;1.50;;;1.23;;
52848;SDS011;38714;53.180;5.812;2022-07-29T10:35:04;2.40;;;0.90;;
52848;SDS011;38714;53.180;5.812;2022-07-29T10:40:38;1.95;;;1.70;;
52848;SDS011;38714;53.180;5.812;2022-07-29T10:43:27;2.10;;;1.23;;
52848;SDS011;38714;53.180;5.812;2022-07-29T10:45:59;1.35;;;0.95;;
52848;SDS011;38714;53.180;5.812;2022-07-29T10:48:25;0.80;;;0.70;;
52848;SDS011;38714;53.180;5.812;2022-07-29T10:50:52;1.92;;;1.33;;
52848;SDS011;38714;53.180;5.812;2022-07-29T10:55:49;2.78;;;1.20;;
52848;SDS011;38714;53.180;5.812;2022-07-29T10:58:20;2.42;;;1.27;;
52848;SDS011;38714;53.180;5.812;2022-07-29T11:00:53;1.75;;;1.65;;
52848;SDS011;38714;53.180;5.812;2022-07-29T11:03:42;1.63;;;0.85;;
52848;SDS011;38714;53.180;5.812;2022-07-29T11:06:11;1.98;;;1.48;;
52848;SDS011;38714;53.180;5.812;2022-07-29T11:08:38;5.47;;;1.33;;
52848;SDS011;38714;53.180;5.812;2022-07-29T11:13:45;1.75;;;1.60;;
52848;SDS011;38714;53.180;5.812;2022-07-29T11:16:13;2.30;;;1.00;;
52848;SDS011;38714;53.180;5.812;2022-07-29T11:21:47;1.88;;;0.70;;
52848;SDS011;38714;53.180;5.812;2022-07-29T11:27:06;4.07;;;0.73;;
52848;SDS011;38714;53.180;5.812;2022-07-29T11:29:33;3.08;;;1.73;;
52848;SDS011;38714;53.180;5.812;2022-07-29T11:34:35;6.43;;;1.00;;
52848;SDS011;38714;53.180;5.812;2022-07-29T11:44:59;7.18;;;2.55;;
52848;SDS011;38714;53.180;5.812;2022-07-29T11:47:36;0.80;;;0.80;;
52848;SDS011;38714;53.180;5.812;2022-07-29T11:50:06;2.45;;;1.20;;
52848;SDS011;38714;53.180;5.812;2022-07-29T11:55:15;1.80;;;1.15;;
52848;SDS011;38714;53.180;5.812;2022-07-29T12:00:23;1.70;;;1.23;;
52848;SDS011;38714;53.180;5.812;2022-07-29T12:02:49;1.17;;;1.08;;
52848;SDS011;38714;53.180;5.812;2022-07-29T12:05:14;1.02;;;0.93;;
52848;SDS011;38714;53.180;5.812;2022-07-29T12:07:40;2.05;;;1.60;;
52848;SDS011;38714;53.180;5.812;2022-07-29T12:10:06;1.52;;;1.00;;
52848;SDS011;38714;53.180;5.812;2022-07-29T12:12:33;2.20;;;1.02;;
52848;SDS011;38714;53.180;5.812;2022-07-29T12:17:38;2.40;;;2.17;;
52848;SDS011;38714;53.180;5.812;2022-07-29T12:20:04;2.30;;;1.30;;
52848;SDS011;38714;53.180;5.812;2022-07-29T12:22:35;2.15;;;1.25;;
52848;SDS011;38714;53.180;5.812;2022-07-29T12:25:03;6.75;;;1.88;;
52848;SDS011;38714;53.180;5.812;2022-07-29T12:27:30;2.15;;;1.33;;
52848;SDS011;38714;53.180;5.812;2022-07-29T12:30:00;2.70;;;1.50;;
52848;SDS011;38714;53.180;5.812;2022-07-29T12:32:44;1.08;;;0.90;;
52848;SDS011;38714;53.180;5.812;2022-07-29T12:35:13;1.52;;;1.05;;
52848;SDS011;38714;53.180;5.812;2022-07-29T12:37:41;1.40;;;1.00;;
52848;SDS011;38714;53.180;5.812;2022-07-29T12:40:08;5.75;;;1.75;;
52848;SDS011;38714;53.180;5.812;2022-07-29T12:42:35;1.65;;;1.00;;
52848;SDS011;38714;53.180;5.812;2022-07-29T12:45:02;6.22;;;1.23;;
52848;SDS011;38714;53.180;5.812;2022-07-29T12:47:29;1.67;;;1.00;;
52848;SDS011;38714;53.180;5.812;2022-07-29T12:50:08;1.42;;;1.33;;
52848;SDS011;38714;53.180;5.812;2022-07-29T12:52:35;2.75;;;1.00;;
52848;SDS011;38714;53.180;5.812;2022-07-29T12:55:01;1.50;;;1.40;;
52848;SDS011;38714;53.180;5.812;2022-07-29T12:57:28;1.95;;;1.60;;
52848;SDS011;38714;53.180;5.812;2022-07-29T13:02:28;3.90;;;1.70;;
52848;SDS011;38714;53.180;5.812;2022-07-29T13:04:57;2.35;;;1.25;;
52848;SDS011;38714;53.180;5.812;2022-07-29T13:07:25;10.95;;;1.35;;
52848;SDS011;38714;53.180;5.812;2022-07-29T13:09:52;2.70;;;1.10;;
52848;SDS011;38714;53.180;5.812;2022-07-29T13:12:17;3.05;;;1.25;;
52848;SDS011;38714;53.180;5.812;2022-07-29T13:14:44;1.73;;;1.38;;
52848;SDS011;38714;53.180;5.812;2022-07-29T13:17:13;1.83;;;1.30;;
52848;SDS011;38714;53.180;5.812;2022-07-29T13:22:22;1.98;;;1.17;;
52848;SDS011;38714;53.180;5.812;2022-07-29T13:27:18;1.38;;;0.90;;
52848;SDS011;38714;53.180;5.812;2022-07-29T13:29:45;1.58;;;1.00;;
52848;SDS011;38714;53.180;5.812;2022-07-29T13:32:11;2.55;;;1.75;;
52848;SDS011;38714;53.180;5.812;2022-07-29T13:34:37;2.17;;;1.10;;
52848;SDS011;38714;53.180;5.812;2022-07-29T13:37:03;3.03;;;1.35;;
52848;SDS011;38714;53.180;5.812;2022-07-29T13:39:28;3.08;;;1.30;;
52848;SDS011;38714;53.180;5.812;2022-07-29T13:41:55;3.65;;;1.48;;
52848;SDS011;38714;53.180;5.812;2022-07-29T13:44:20;4.32;;;1.92;;
52848;SDS011;38714;53.180;5.812;2022-07-29T13:46:46;3.38;;;1.42;;
52848;SDS011;38714;53.180;5.812;2022-07-29T13:49:12;2.25;;;1.60;;
52848;SDS011;38714;53.180;5.812;2022-07-29T13:51:37;1.83;;;1.48;;
52848;SDS011;38714;53.180;5.812;2022-07-29T13:54:03;3.13;;;1.73;;
52848;SDS011;38714;53.180;5.812;2022-07-29T13:56:29;1.38;;;1.27;;
52848;SDS011;38714;53.180;5.812;2022-07-29T13:58:55;4.40;;;2.40;;
52848;SDS011;38714;53.180;5.812;2022-07-29T14:01:20;2.03;;;1.40;;
52848;SDS011;38714;53.180;5.812;2022-07-29T14:03:46;6.05;;;2.08;;
52848;SDS011;38714;53.180;5.812;2022-07-29T14:06:12;1.95;;;1.65;;
52848;SDS011;38714;53.180;5.812;2022-07-29T14:08:38;4.13;;;1.05;;
52848;SDS011;38714;53.180;5.812;2022-07-29T14:11:03;6.15;;;2.33;;
52848;SDS011;38714;53.180;5.812;2022-07-29T14:13:29;5.53;;;1.45;;
52848;SDS011;38714;53.180;5.812;2022-07-29T14:15:55;1.95;;;1.15;;
52848;SDS011;38714;53.180;5.812;2022-07-29T14:18:20;2.70;;;1.45;;
52848;SDS011;38714;53.180;5.812;2022-07-29T14:20:46;2.50;;;1.00;;
52848;SDS011;38714;53.180;5.812;2022-07-29T14:23:11;2.92;;;1.90;;
52848;SDS011;38714;53.180;5.812;2022-07-29T14:25:37;3.80;;;2.00;;
52848;SDS011;38714;53.180;5.812;2022-07-29T14:28:02;1.65;;;1.55;;
52848;SDS011;38714;53.180;5.812;2022-07-29T14:30:28;1.55;;;1.42;;
52848;SDS011;38714;53.180;5.812;2022-07-29T14:32:54;3.38;;;1.30;;
52848;SDS011;38714;53.180;5.812;2022-07-29T14:35:19;2.72;;;1.55;;
52848;SDS011;38714;53.180;5.812;2022-07-29T14:37:45;2.10;;;1.88;;
52848;SDS011;38714;53.180;5.812;2022-07-29T14:40:10;3.97;;;2.70;;
52848;SDS011;38714;53.180;5.812;2022-07-29T14:42:36;1.90;;;1.80;;
52848;SDS011;38714;53.180;5.812;2022-07-29T14:45:03;7.55;;;2.13;;
52848;SDS011;38714;53.180;5.812;2022-07-29T14:47:30;5.80;;;1.75;;
52848;SDS011;38714;53.180;5.812;2022-07-29T14:49:57;2.80;;;2.03;;
52848;SDS011;38714;53.180;5.812;2022-07-29T14:52:22;1.85;;;1.75;;
52848;SDS011;38714;53.180;5.812;2022-07-29T14:54:48;2.65;;;1.90;;
52848;SDS011;38714;53.180;5.812;2022-07-29T14:57:14;4.47;;;2.08;;
52848;SDS011;38714;53.180;5.812;2022-07-29T14:59:39;2.13;;;1.58;;
52848;SDS011;38714;53.180;5.812;2022-07-29T15:02:05;3.78;;;1.58;;
52848;SDS011;38714;53.180;5.812;2022-07-29T15:04:30;2.97;;;2.60;;
52848;SDS011;38714;53.180;5.812;2022-07-29T15:06:56;4.28;;;1.83;;
52848;SDS011;38714;53.180;5.812;2022-07-29T15:09:24;3.50;;;2.17;;
52848;SDS011;38714;53.180;5.812;2022-07-29T15:11:50;2.95;;;2.45;;
52848;SDS011;38714;53.180;5.812;2022-07-29T15:14:15;3.75;;;2.03;;
52848;SDS011;38714;53.180;5.812;2022-07-29T15:16:41;3.28;;;1.92;;
52848;SDS011;38714;53.180;5.812;2022-07-29T15:19:07;6.63;;;2.35;;
52848;SDS011;38714;53.180;5.812;2022-07-29T15:21:33;6.47;;;2.00;;
52848;SDS011;38714;53.180;5.812;2022-07-29T15:23:59;4.10;;;1.92;;
52848;SDS011;38714;53.180;5.812;2022-07-29T15:26:24;13.57;;;3.03;;
52848;SDS011;38714;53.180;5.812;2022-07-29T15:28:50;5.30;;;2.10;;
52848;SDS011;38714;53.180;5.812;2022-07-29T15:31:16;4.53;;;2.22;;
52848;SDS011;38714;53.180;5.812;2022-07-29T15:33:43;2.78;;;1.95;;
52848;SDS011;38714;53.180;5.812;2022-07-29T15:36:09;2.55;;;2.20;;
52848;SDS011;38714;53.180;5.812;2022-07-29T15:38:37;10.00;;;2.50;;
52848;SDS011;38714;53.180;5.812;2022-07-29T15:41:04;6.47;;;2.22;;
52848;SDS011;38714;53.180;5.812;2022-07-29T15:43:30;2.33;;;1.48;;
52848;SDS011;38714;53.180;5.812;2022-07-29T15:46:00;1.73;;;1.30;;
52848;SDS011;38714;53.180;5.812;2022-07-29T15:48:44;1.63;;;1.52;;